Time;durP1;ratioP1;P1;durP2;ratioP2;P2;SDS_P1;SDS_P2;PMS_P1;PMS_P2;Temp;Humidity;BMP_temperature;BMP_pressure;BME280_temperature;BME280_humidity;BME280_pressure;Samples;Min_cycle;Max_cycle;Signal;HPM_P1;HPM_P2
2022/08/20 00:02:15;;;;;;;1.42;1.42;;;20.00;99.90;;;;;;5073945;28;20208;-71
2022/08/20 00:05:03;;;;;;;0.40;0.40;;;19.90;99.90;;;;;;5072751;28;20309;-70
2022/08/20 00:07:52;;;;;;;0.50;0.50;;;19.90;99.90;;;;;;5073215;28;20225;-68
2022/08/20 00:10:43;;;;;;;1.50;1.40;;;19.90;99.90;;;;;;5072846;28;20692;-68
2022/08/20 00:13:41;;;;;;;5.85;2.55;;;19.90;99.90;;;;;;5072799;28;20201;-69
2022/08/20 00:16:33;;;;;;;0.40;0.40;;;19.90;99.90;;;;;;5074368;28;20617;-70
2022/08/20 00:19:22;;;;;;;0.60;0.60;;;19.90;99.90;;;;;;5072535;28;20205;-65
2022/08/20 00:22:13;;;;;;;0.40;0.40;;;20.00;99.90;;;;;;5072243;28;20197;-66
2022/08/20 00:25:01;;;;;;;0.65;0.65;;;20.00;99.90;;;;;;5073307;28;20227;-70
2022/08/20 00:27:49;;;;;;;2.83;2.35;;;20.00;99.90;;;;;;5073072;28;20220;-70
2022/08/20 00:30:40;;;;;;;1.55;1.35;;;20.10;99.90;;;;;;5071906;28;20208;-66
2022/08/20 00:33:28;;;;;;;0.40;0.40;;;20.10;99.90;;;;;;5072489;28;20229;-68
2022/08/20 00:36:17;;;;;;;0.40;0.40;;;20.10;99.90;;;;;;5072840;28;20763;-70
2022/08/20 00:39:05;;;;;;;0.40;0.40;;;20.10;99.90;;;;;;5072363;28;20201;-68
2022/08/20 00:41:53;;;;;;;1.90;1.02;;;20.10;99.90;;;;;;5073799;28;20212;-70
2022/08/20 00:44:45;;;;;;;4.47;2.53;;;20.10;99.90;;;;;;5072611;28;20779;-69
2022/08/20 00:47:35;;;;;;;0.52;0.52;;;20.10;99.90;;;;;;5072488;28;20312;-72
2022/08/20 00:50:31;;;;;;;0.55;0.55;;;20.10;99.90;;;;;;5072257;28;20201;-71
2022/08/20 00:53:20;;;;;;;0.60;0.60;;;20.00;99.90;;;;;;5072328;28;20671;-70
2022/08/20 00:56:10;;;;;;;0.50;0.50;;;20.10;99.90;;;;;;5072333;28;20701;-71
2022/08/20 00:58:59;;;;;;;2.45;2.35;;;20.10;99.90;;;;;;5071642;28;20583;-71
2022/08/20 01:01:48;;;;;;;1.30;1.30;;;20.10;99.90;;;;;;5072364;28;20196;-69
2022/08/20 01:04:46;;;;;;;1.20;1.10;;;20.10;99.90;;;;;;5073064;28;20258;-68
2022/08/20 01:07:36;;;;;;;0.80;0.80;;;20.10;99.90;;;;;;5072009;28;20487;-70
2022/08/20 01:10:29;;;;;;;2.08;1.98;;;20.10;99.90;;;;;;5071655;28;20700;-71
2022/08/20 01:13:20;;;;;;;7.68;1.25;;;20.10;99.90;;;;;;5072151;28;20205;-70
2022/08/20 01:16:17;;;;;;;2.28;1.13;;;20.10;99.90;;;;;;5071778;28;20286;-67
2022/08/20 01:19:09;;;;;;;0.60;0.60;;;20.10;99.90;;;;;;5071758;28;20623;-70
2022/08/20 01:25:42;;;;;;;1.35;1.30;;;20.20;99.90;;;;;;5071868;28;20212;-66
2022/08/20 01:28:36;;;;;;;0.93;0.93;;;20.20;99.90;;;;;;5071993;28;20205;-68
2022/08/20 01:31:28;;;;;;;0.50;0.50;;;20.20;99.90;;;;;;5070852;28;20208;-67
2022/08/20 01:34:19;;;;;;;0.40;0.40;;;20.10;99.90;;;;;;5071535;28;20205;-68
2022/08/20 01:37:07;;;;;;;0.40;0.40;;;20.10;99.90;;;;;;5069846;28;20292;-70
2022/08/20 01:39:56;;;;;;;2.25;2.15;;;20.10;99.90;;;;;;5071365;28;20197;-71
2022/08/20 01:42:48;;;;;;;0.40;0.40;;;20.00;99.90;;;;;;5071056;28;20208;-71
2022/08/20 01:45:46;;;;;;;0.80;0.80;;;20.10;99.90;;;;;;5071340;28;20220;-71
2022/08/20 01:48:38;;;;;;;0.40;0.40;;;20.00;99.90;;;;;;5072106;28;20267;-68
2022/08/20 01:51:29;;;;;;;0.40;0.40;;;20.10;99.90;;;;;;5071942;28;20201;-66
2022/08/20 01:54:18;;;;;;;0.40;0.40;;;20.10;99.90;;;;;;5071372;28;20270;-70
2022/08/20 01:57:12;;;;;;;2.60;1.92;;;20.00;99.90;;;;;;5071302;28;20213;-71
2022/08/20 02:00:07;;;;;;;0.40;0.40;;;20.00;99.90;;;;;;5070975;28;20353;-71
2022/08/20 02:03:02;;;;;;;0.43;0.43;;;20.10;99.90;;;;;;5071758;28;20286;-71
2022/08/20 02:05:52;;;;;;;0.60;0.60;;;20.00;99.90;;;;;;5071488;28;20267;-70
2022/08/20 02:08:40;;;;;;;0.45;0.45;;;20.00;99.90;;;;;;5071084;28;20275;-69
2022/08/20 02:11:30;;;;;;;0.40;0.40;;;20.00;99.90;;;;;;5070773;28;20553;-69
2022/08/20 02:14:19;;;;;;;3.15;3.05;;;20.00;99.90;;;;;;5071369;28;20274;-71
2022/08/20 02:17:08;;;;;;;0.40;0.40;;;20.00;99.90;;;;;;5071943;28;20224;-66
2022/08/20 02:20:00;;;;;;;0.50;0.50;;;20.00;99.90;;;;;;5070329;28;20204;-68
2022/08/20 02:22:51;;;;;;;0.50;0.50;;;20.00;99.90;;;;;;5070749;28;20695;-70
2022/08/20 02:25:46;;;;;;;0.40;0.40;;;19.90;99.90;;;;;;5071030;28;20693;-67
2022/08/20 02:28:34;;;;;;;0.40;0.40;;;19.90;99.90;;;;;;5071076;28;20249;-67
2022/08/20 02:31:23;;;;;;;0.40;0.40;;;20.00;99.90;;;;;;5070884;28;20412;-66
2022/08/20 02:34:14;;;;;;;0.40;0.40;;;20.00;99.90;;;;;;5071248;28;20192;-66
2022/08/20 02:37:10;;;;;;;1.02;1.02;;;20.00;99.90;;;;;;5070968;28;20739;-66
2022/08/20 02:39:59;;;;;;;1.20;1.20;;;20.00;99.90;;;;;;5070080;28;20204;-67
2022/08/20 02:42:47;;;;;;;0.40;0.40;;;20.00;99.90;;;;;;5071122;28;20201;-66
2022/08/20 02:45:39;;;;;;;0.40;0.40;;;20.00;99.90;;;;;;5070284;28;20240;-68
2022/08/20 02:48:27;;;;;;;0.85;0.85;;;20.00;99.90;;;;;;5072156;28;20201;-67
2022/08/20 02:51:17;;;;;;;0.40;0.40;;;20.00;99.90;;;;;;5074232;28;20231;-67
2022/08/20 02:54:17;;;;;;;0.40;0.40;;;20.00;99.90;;;;;;5074817;28;20200;-66
2022/08/20 02:57:05;;;;;;;0.40;0.40;;;20.10;99.90;;;;;;5073998;28;20247;-69
2022/08/20 02:59:55;;;;;;;0.40;0.40;;;20.10;99.90;;;;;;5073849;28;20209;-67
2022/08/20 03:02:44;;;;;;;0.40;0.40;;;20.10;99.90;;;;;;5073950;28;20560;-66
2022/08/20 03:05:32;;;;;;;0.50;0.50;;;20.10;99.90;;;;;;5074035;28;20274;-66
2022/08/20 03:08:22;;;;;;;0.82;0.82;;;20.10;99.90;;;;;;5074104;28;20246;-66
2022/08/20 03:11:10;;;;;;;0.63;0.60;;;20.00;99.90;;;;;;5073499;28;20224;-70
2022/08/20 03:13:59;;;;;;;3.97;3.70;;;20.00;99.90;;;;;;5074100;28;20197;-69
2022/08/20 03:16:47;;;;;;;2.78;2.05;;;20.00;99.90;;;;;;5073740;28;20731;-70
2022/08/20 03:19:35;;;;;;;1.65;1.55;;;20.00;99.90;;;;;;5073601;28;20208;-66
2022/08/20 03:22:23;;;;;;;28.80;1.65;;;20.00;99.90;;;;;;5073741;28;20205;-69
2022/08/20 03:25:13;;;;;;;5.35;2.50;;;20.00;99.90;;;;;;5074304;28;20696;-66
2022/08/20 03:28:01;;;;;;;1.90;1.80;;;19.90;99.90;;;;;;5073620;28;20220;-66
2022/08/20 03:30:50;;;;;;;3.90;3.70;;;19.90;99.90;;;;;;5073384;28;20250;-69
2022/08/20 03:33:39;;;;;;;3.13;2.85;;;19.90;99.90;;;;;;5073443;28;20207;-66
2022/08/20 03:36:40;;;;;;;0.50;0.50;;;19.90;99.90;;;;;;5073906;28;20213;-69
2022/08/20 03:39:28;;;;;;;0.40;0.40;;;19.80;99.90;;;;;;5073012;28;20583;-69
2022/08/20 03:42:18;;;;;;;3.35;3.15;;;19.80;99.90;;;;;;5073346;28;20192;-67
2022/08/20 03:45:07;;;;;;;2.25;2.15;;;19.80;99.90;;;;;;5073805;28;20212;-67
2022/08/20 03:47:56;;;;;;;0.90;0.90;;;19.80;99.90;;;;;;5073710;28;20286;-70
2022/08/20 03:50:46;;;;;;;0.40;0.40;;;19.80;99.90;;;;;;5073529;28;20207;-69
2022/08/20 03:53:34;;;;;;;0.60;0.60;;;19.80;99.90;;;;;;5073359;28;20259;-67
2022/08/20 03:56:22;;;;;;;1.23;1.23;;;19.80;99.90;;;;;;5072950;28;20213;-69
2022/08/20 03:59:12;;;;;;;3.35;3.15;;;19.80;99.90;;;;;;5072041;28;20204;-67
2022/08/20 04:02:00;;;;;;;0.40;0.40;;;19.80;99.90;;;;;;5073298;28;20657;-69
2022/08/20 04:04:48;;;;;;;0.90;0.75;;;19.80;99.90;;;;;;5073456;28;20322;-70
2022/08/20 04:07:36;;;;;;;0.40;0.40;;;19.80;99.90;;;;;;5072582;28;20216;-70
2022/08/20 04:10:25;;;;;;;9.25;4.10;;;19.80;99.90;;;;;;5072399;28;20580;-68
2022/08/20 04:13:15;;;;;;;2.92;2.25;;;19.80;99.90;;;;;;5073151;28;20236;-69
2022/08/20 04:16:07;;;;;;;0.40;0.40;;;19.80;99.90;;;;;;5072323;28;20270;-69
2022/08/20 04:19:00;;;;;;;0.40;0.40;;;19.80;99.90;;;;;;5072742;28;20197;-67
2022/08/20 04:21:49;;;;;;;1.65;1.55;;;19.80;99.90;;;;;;5073284;28;20306;-66
2022/08/20 04:24:37;;;;;;;0.40;0.40;;;19.90;99.90;;;;;;5072526;28;20205;-68
2022/08/20 04:27:25;;;;;;;2.30;2.10;;;19.90;99.90;;;;;;5072367;28;20266;-68
2022/08/20 04:30:14;;;;;;;0.73;0.70;;;19.90;99.90;;;;;;5072755;28;20228;-69
2022/08/20 04:33:04;;;;;;;0.40;0.40;;;20.00;99.90;;;;;;5072334;28;20254;-69
2022/08/20 04:35:52;;;;;;;2.15;1.80;;;20.00;99.90;;;;;;5072363;28;20677;-66
2022/08/20 04:38:40;;;;;;;5.43;1.63;;;19.90;99.90;;;;;;5072833;28;20270;-66
2022/08/20 04:41:37;;;;;;;2.05;1.95;;;20.00;99.90;;;;;;5072885;28;20683;-67
2022/08/20 04:44:26;;;;;;;1.15;1.15;;;20.00;99.90;;;;;;5072400;28;20208;-66
2022/08/20 04:47:20;;;;;;;2.28;2.17;;;20.00;99.90;;;;;;5071904;28;20744;-69
2022/08/20 04:50:23;;;;;;;1.58;1.48;;;20.00;99.90;;;;;;5072338;28;20205;-68
2022/08/20 04:53:13;;;;;;;1.50;1.50;;;20.00;99.90;;;;;;5071842;28;20255;-66
2022/08/20 04:56:02;;;;;;;0.80;0.80;;;19.90;99.90;;;;;;5071781;28;20250;-67
2022/08/20 04:58:51;;;;;;;5.72;5.15;;;20.00;99.90;;;;;;5072422;28;20193;-70
2022/08/20 05:01:39;;;;;;;1.05;1.05;;;19.90;99.90;;;;;;5071826;28;20600;-67
2022/08/20 05:04:28;;;;;;;0.70;0.70;;;20.00;99.90;;;;;;5071701;28;20205;-70
2022/08/20 05:07:18;;;;;;;2.63;2.53;;;19.90;99.90;;;;;;5072247;28;20224;-68
2022/08/20 05:10:08;;;;;;;1.10;1.02;;;20.00;99.90;;;;;;5072167;28;20197;-69
2022/08/20 05:12:57;;;;;;;5.95;3.90;;;20.00;99.90;;;;;;5071669;28;20201;-68
2022/08/20 05:15:47;;;;;;;2.60;2.20;;;20.00;99.90;;;;;;5072001;28;20584;-69
2022/08/20 05:18:35;;;;;;;1.05;1.05;;;20.00;99.90;;;;;;5071578;28;20232;-67
2022/08/20 05:21:24;;;;;;;0.40;0.40;;;20.00;99.90;;;;;;5071287;28;20223;-67
2022/08/20 05:24:13;;;;;;;0.77;0.77;;;20.00;99.90;;;;;;5071431;28;20258;-66
2022/08/20 05:27:01;;;;;;;0.60;0.60;;;20.00;99.90;;;;;;5071777;28;20250;-66
2022/08/20 05:29:52;;;;;;;0.70;0.70;;;20.00;99.90;;;;;;5072625;28;20200;-67
2022/08/20 05:32:41;;;;;;;0.50;0.50;;;20.10;99.90;;;;;;5071885;28;20204;-67
2022/08/20 05:35:34;;;;;;;1.67;1.58;;;20.00;99.90;;;;;;5071817;28;20245;-64
2022/08/20 05:38:25;;;;;;;0.40;0.40;;;20.00;99.90;;;;;;5071089;28;20188;-66
2022/08/20 05:41:14;;;;;;;0.40;0.40;;;20.10;99.90;;;;;;5071059;28;20205;-67
2022/08/20 05:44:18;;;;;;;2.58;1.58;;;20.20;99.90;;;;;;5071775;28;20192;-65
2022/08/20 05:47:06;;;;;;;0.50;0.50;;;20.20;99.90;;;;;;5071349;28;20269;-67
2022/08/20 05:49:55;;;;;;;1.15;1.15;;;20.20;99.90;;;;;;5071434;28;20331;-66
2022/08/20 05:52:44;;;;;;;0.40;0.40;;;20.30;99.90;;;;;;5071619;28;20580;-66
2022/08/20 05:55:32;;;;;;;0.70;0.70;;;20.30;99.90;;;;;;5071681;28;20204;-66
2022/08/20 05:58:24;;;;;;;1.30;1.02;;;20.30;99.90;;;;;;5071493;28;20205;-67
2022/08/20 06:01:12;;;;;;;2.88;2.67;;;20.40;99.90;;;;;;5068541;28;20264;-66
2022/08/20 06:07:08;;;;;;;0.40;0.40;;;20.30;99.90;;;;;;5070708;28;20723;-67
2022/08/20 06:09:56;;;;;;;0.40;0.40;;;20.30;99.90;;;;;;5090704;28;20264;-66
2022/08/20 06:12:44;;;;;;;12.93;1.95;;;20.30;99.90;;;;;;5091049;28;20191;-66
2022/08/20 06:15:35;;;;;;;0.70;0.70;;;20.40;99.90;;;;;;5090388;28;20203;-66
2022/08/20 06:18:23;;;;;;;1.80;1.45;;;20.40;99.90;;;;;;5090975;28;20635;-66
2022/08/20 06:21:15;;;;;;;0.40;0.40;;;20.30;99.90;;;;;;5077062;28;20301;-66
2022/08/20 06:24:05;;;;;;;0.40;0.40;;;20.30;99.90;;;;;;5069711;28;20203;-68
2022/08/20 06:26:56;;;;;;;0.68;0.68;;;20.30;99.90;;;;;;5070382;28;20216;-66
2022/08/20 06:29:44;;;;;;;0.50;0.50;;;20.30;99.90;;;;;;5070590;28;20205;-66
2022/08/20 06:32:33;;;;;;;1.48;1.48;;;20.30;99.90;;;;;;5070632;28;20201;-67
2022/08/20 06:35:22;;;;;;;0.40;0.40;;;20.20;99.90;;;;;;5069887;28;20259;-67
2022/08/20 06:38:11;;;;;;;0.40;0.40;;;20.20;99.90;;;;;;5070638;28;20673;-67
2022/08/20 06:40:59;;;;;;;0.43;0.43;;;20.20;99.90;;;;;;5070206;28;20611;-66
2022/08/20 06:43:47;;;;;;;1.67;1.50;;;20.20;99.90;;;;;;5069836;28;20193;-66
2022/08/20 06:46:36;;;;;;;1.83;1.05;;;20.20;99.90;;;;;;5070365;28;20221;-65
2022/08/20 06:49:25;;;;;;;1.83;1.77;;;20.20;99.90;;;;;;5070345;28;20618;-66
2022/08/20 06:52:15;;;;;;;2.15;2.03;;;20.30;99.90;;;;;;5069780;28;20682;-65
2022/08/20 06:55:05;;;;;;;1.48;1.45;;;20.30;99.90;;;;;;5070383;28;20239;-65
2022/08/20 06:57:58;;;;;;;25.65;3.92;;;20.40;99.90;;;;;;5083718;28;20688;-67
2022/08/20 07:00:46;;;;;;;3.25;2.03;;;20.50;99.90;;;;;;5089987;28;20197;-65
2022/08/20 07:03:36;;;;;;;1.55;1.45;;;20.50;99.90;;;;;;5089749;28;20192;-65
2022/08/20 07:06:26;;;;;;;3.67;0.95;;;20.70;99.90;;;;;;5089695;28;20212;-66
2022/08/20 07:09:14;;;;;;;0.90;0.90;;;20.70;99.90;;;;;;5089865;28;20220;-67
2022/08/20 07:12:03;;;;;;;0.60;0.60;;;20.70;99.90;;;;;;5090403;28;20227;-66
2022/08/20 07:14:51;;;;;;;1.38;1.33;;;20.80;99.90;;;;;;5090478;28;20204;-66
2022/08/20 07:17:39;;;;;;;0.80;0.80;;;20.80;99.90;;;;;;5090788;28;20231;-65
2022/08/20 07:20:30;;;;;;;1.30;1.20;;;20.80;99.90;;;;;;5089935;28;20207;-65
2022/08/20 07:23:19;;;;;;;0.63;0.63;;;20.90;99.90;;;;;;5090972;28;20203;-66
2022/08/20 07:26:07;;;;;;;3.22;3.03;;;20.90;99.90;;;;;;5090641;28;20273;-66
2022/08/20 07:28:56;;;;;;;0.68;0.68;;;20.90;99.90;;;;;;5090461;28;20227;-67
2022/08/20 07:34:50;;;;;;;2.03;1.83;;;21.00;99.90;;;;;;5091049;28;20210;-67
2022/08/20 07:37:39;;;;;;;0.65;0.65;;;21.10;99.90;;;;;;5093704;28;20223;-67
2022/08/20 07:40:31;;;;;;;0.40;0.40;;;21.00;99.90;;;;;;5093375;28;20204;-65
2022/08/20 07:43:22;;;;;;;0.80;0.80;;;21.00;99.90;;;;;;5093803;28;20683;-64
2022/08/20 07:46:12;;;;;;;1.08;1.08;;;21.10;99.90;;;;;;5094150;28;20220;-65
2022/08/20 07:49:00;;;;;;;0.50;0.50;;;21.20;99.90;;;;;;5093856;28;20336;-65
2022/08/20 07:51:48;;;;;;;0.40;0.40;;;21.30;99.90;;;;;;5094533;28;20297;-64
2022/08/20 07:54:37;;;;;;;3.70;2.88;;;21.40;99.90;;;;;;5095226;28;20200;-64
2022/08/20 07:57:26;;;;;;;3.70;3.20;;;21.50;99.90;;;;;;5083797;28;20333;-65
2022/08/20 08:00:16;;;;;;;4.80;2.45;;;21.50;99.90;;;;;;5072956;28;20193;-67
2022/08/20 08:03:05;;;;;;;3.50;3.22;;;21.40;99.90;;;;;;5073025;28;20208;-68
2022/08/20 08:05:54;;;;;;;3.47;2.58;;;21.50;99.90;;;;;;5073038;28;20204;-66
2022/08/20 08:08:42;;;;;;;1.75;1.45;;;21.50;99.90;;;;;;5072700;28;20212;-66
2022/08/20 08:11:34;;;;;;;2.47;1.95;;;21.60;99.90;;;;;;5072601;28;20288;-65
2022/08/20 08:14:28;;;;;;;0.65;0.65;;;21.70;99.90;;;;;;5073160;28;20323;-65
2022/08/20 08:17:17;;;;;;;0.82;0.82;;;21.60;99.90;;;;;;5073929;28;20693;-66
2022/08/20 08:20:07;;;;;;;3.28;3.10;;;21.60;99.90;;;;;;5073017;28;20697;-67
2022/08/20 08:22:57;;;;;;;6.07;0.88;;;21.60;99.90;;;;;;5073578;28;20200;-65
2022/08/20 08:25:45;;;;;;;3.75;2.80;;;21.70;99.90;;;;;;5073247;28;20201;-66
2022/08/20 08:28:35;;;;;;;2.30;1.50;;;21.80;99.90;;;;;;5073928;28;20216;-66
2022/08/20 08:31:25;;;;;;;0.73;0.73;;;21.90;99.90;;;;;;5073371;28;20219;-65
2022/08/20 08:34:13;;;;;;;2.90;2.70;;;22.00;99.90;;;;;;5073380;28;20201;-65
2022/08/20 08:37:02;;;;;;;0.60;0.60;;;22.10;99.90;;;;;;5073510;28;20224;-65
2022/08/20 08:39:50;;;;;;;0.85;0.85;;;22.30;99.90;;;;;;5072756;28;20680;-65
2022/08/20 08:42:43;;;;;;;0.55;0.55;;;22.40;99.90;;;;;;5073140;28;20208;-65
2022/08/20 08:45:40;;;;;;;49.67;5.55;;;22.50;99.90;;;;;;5073229;28;20204;-65
2022/08/20 08:48:34;;;;;;;1.13;1.02;;;22.60;99.90;;;;;;5073200;28;20223;-66
2022/08/20 08:51:29;;;;;;;0.40;0.40;;;22.80;99.90;;;;;;5073506;28;20213;-66
2022/08/20 08:54:21;;;;;;;0.60;0.60;;;22.90;99.90;;;;;;5073676;28;20204;-65
2022/08/20 08:57:10;;;;;;;0.60;0.60;;;22.80;99.90;;;;;;5080305;28;20683;-65
2022/08/20 09:00:00;;;;;;;5.78;4.80;;;22.60;99.90;;;;;;5093401;28;20199;-64
2022/08/20 09:02:59;;;;;;;1.98;1.95;;;22.50;99.90;;;;;;5093051;28;20203;-66
2022/08/20 09:05:52;;;;;;;5.28;2.10;;;22.30;99.90;;;;;;5093926;28;20287;-65
2022/08/20 09:08:46;;;;;;;3.10;3.00;;;22.20;99.90;;;;;;5093277;28;20458;-66
2022/08/20 09:11:46;;;;;;;1.98;1.88;;;22.20;99.90;;;;;;5091806;28;20207;-66
2022/08/20 09:14:35;;;;;;;2.42;1.70;;;22.20;99.90;;;;;;5092922;28;20196;-65
2022/08/20 09:17:24;;;;;;;0.98;0.98;;;22.20;99.90;;;;;;5092426;28;20628;-67
2022/08/20 09:20:12;;;;;;;1.55;1.45;;;22.30;99.90;;;;;;5091275;28;20193;-67
2022/08/20 09:23:01;;;;;;;2.08;1.98;;;22.30;99.90;;;;;;5092297;28;20200;-65
2022/08/20 09:25:50;;;;;;;0.50;0.50;;;22.20;99.90;;;;;;5092389;28;20196;-65
2022/08/20 09:28:38;;;;;;;0.50;0.50;;;22.20;99.90;;;;;;5093270;28;20216;-66
2022/08/20 09:31:27;;;;;;;1.77;1.58;;;22.30;99.90;;;;;;5091969;28;20204;-66
2022/08/20 09:34:15;;;;;;;1.08;1.08;;;22.30;99.90;;;;;;5092209;28;20192;-66
2022/08/20 09:37:03;;;;;;;0.40;0.40;;;22.20;99.90;;;;;;5092119;28;20220;-64
2022/08/20 09:39:53;;;;;;;3.28;3.03;;;22.20;99.90;;;;;;5091384;28;20203;-65
2022/08/20 09:42:41;;;;;;;4.30;2.47;;;22.40;99.90;;;;;;5092760;28;20200;-67
2022/08/20 09:45:30;;;;;;;1.65;1.55;;;22.30;99.90;;;;;;5092073;28;20269;-65
2022/08/20 09:48:18;;;;;;;1.20;1.20;;;22.40;99.90;;;;;;5092186;28;20199;-66
2022/08/20 09:51:08;;;;;;;0.40;0.40;;;22.50;99.90;;;;;;5091403;28;20200;-65
2022/08/20 09:53:56;;;;;;;0.40;0.40;;;22.60;99.90;;;;;;5092454;28;20691;-64
2022/08/20 09:56:47;;;;;;;0.40;0.40;;;22.90;99.90;;;;;;5087490;28;20220;-66
2022/08/20 09:59:36;;;;;;;0.57;0.57;;;23.10;99.90;;;;;;5072097;28;20204;-64
2022/08/20 10:02:24;;;;;;;1.98;1.02;;;23.10;99.90;;;;;;5072601;28;20211;-66
2022/08/20 10:05:13;;;;;;;0.52;0.47;;;23.10;99.90;;;;;;5072232;28;20230;-65
2022/08/20 10:08:05;;;;;;;0.63;0.63;;;23.10;99.90;;;;;;5072060;28;20228;-65
2022/08/20 10:10:54;;;;;;;2.70;2.33;;;23.10;99.90;;;;;;5071488;28;20589;-65
2022/08/20 10:13:43;;;;;;;1.52;1.42;;;23.00;99.90;;;;;;5071200;28;20200;-66
2022/08/20 10:16:31;;;;;;;2.30;2.13;;;22.80;99.90;;;;;;5071731;28;20235;-65
2022/08/20 10:19:19;;;;;;;0.88;0.85;;;22.70;99.90;;;;;;5071952;28;20219;-64
2022/08/20 10:22:11;;;;;;;2.00;1.27;;;22.60;99.90;;;;;;5071013;28;20353;-66
2022/08/20 10:24:59;;;;;;;1.30;1.20;;;22.60;99.90;;;;;;5070821;28;20326;-66
2022/08/20 10:27:47;;;;;;;0.40;0.40;;;22.60;99.90;;;;;;5071207;28;20711;-65
2022/08/20 10:30:37;;;;;;;0.40;0.40;;;22.60;99.90;;;;;;5071751;28;20216;-64
2022/08/20 10:33:25;;;;;;;0.40;0.40;;;22.70;99.90;;;;;;5071345;28;20203;-64
2022/08/20 10:36:15;;;;;;;1.65;1.55;;;22.90;99.90;;;;;;5072027;28;20627;-66
2022/08/20 10:39:03;;;;;;;3.33;1.17;;;22.90;99.90;;;;;;5072016;28;20201;-64
2022/08/20 10:41:51;;;;;;;1.95;1.85;;;22.90;99.90;;;;;;5071800;28;20208;-65
2022/08/20 10:44:39;;;;;;;0.50;0.50;;;22.90;99.90;;;;;;5071796;28;20207;-69
2022/08/20 10:47:32;;;;;;;2.58;2.47;;;23.00;99.90;;;;;;5071405;28;20220;-66
2022/08/20 10:50:20;;;;;;;1.05;1.05;;;23.00;99.90;;;;;;5071321;28;20221;-65
2022/08/20 10:53:08;;;;;;;0.50;0.50;;;22.90;99.90;;;;;;5071977;28;20227;-64
2022/08/20 10:55:57;;;;;;;0.40;0.40;;;23.00;99.90;;;;;;5071309;28;20699;-66
2022/08/20 10:58:45;;;;;;;0.40;0.40;;;23.00;99.90;;;;;;5052151;28;20673;-66
2022/08/20 11:01:33;;;;;;;0.40;0.40;;;23.00;99.90;;;;;;5052071;28;20202;-65
2022/08/20 11:04:25;;;;;;;3.03;2.05;;;23.00;99.90;;;;;;5052545;28;20251;-64
2022/08/20 11:07:16;;;;;;;0.40;0.40;;;23.00;99.90;;;;;;5051511;28;20308;-64
2022/08/20 11:10:05;;;;;;;0.47;0.47;;;22.80;99.90;;;;;;5053510;28;20856;-65
2022/08/20 11:13:01;;;;;;;1.20;0.98;;;22.70;99.90;;;;;;5055028;28;20583;-65
2022/08/20 11:15:49;;;;;;;3.28;2.97;;;22.50;99.90;;;;;;5054009;28;20251;-66
2022/08/20 11:18:37;;;;;;;0.88;0.88;;;22.50;99.90;;;;;;5035955;28;20209;-66
2022/08/20 11:21:26;;;;;;;1.05;1.05;;;22.40;99.90;;;;;;5034818;28;20198;-66
2022/08/20 11:24:14;;;;;;;1.23;1.13;;;22.40;99.90;;;;;;5033562;28;20671;-67
2022/08/20 11:27:03;;;;;;;1.25;1.10;;;22.30;99.90;;;;;;5033591;28;20276;-68
2022/08/20 11:29:52;;;;;;;0.75;0.73;;;22.20;99.90;;;;;;5033867;28;20229;-65
2022/08/20 11:32:40;;;;;;;0.60;0.60;;;22.10;99.90;;;;;;5033830;28;20256;-66
2022/08/20 11:35:30;;;;;;;0.40;0.40;;;22.10;99.90;;;;;;5033398;28;20575;-67
2022/08/20 11:38:37;;;;;;;0.50;0.50;;;22.10;99.90;;;;;;5033792;28;20209;-66
2022/08/20 11:41:26;;;;;;;0.50;0.50;;;22.20;99.90;;;;;;5033645;28;20198;-66
2022/08/20 11:44:14;;;;;;;0.98;0.98;;;22.30;99.90;;;;;;5034137;28;20251;-66
2022/08/20 11:47:10;;;;;;;0.40;0.40;;;22.40;99.90;;;;;;5033822;28;20303;-65
2022/08/20 11:49:59;;;;;;;0.40;0.40;;;22.40;99.90;;;;;;5033349;28;20624;-65
2022/08/20 11:52:47;;;;;;;0.68;0.68;;;22.50;99.90;;;;;;5034264;28;20205;-66
2022/08/20 11:55:38;;;;;;;1.20;1.10;;;22.60;99.90;;;;;;5033269;28;20217;-66
2022/08/20 11:58:26;;;;;;;0.50;0.50;;;22.50;99.90;;;;;;5069021;28;20207;-66
2022/08/20 12:01:14;;;;;;;0.40;0.40;;;22.70;99.90;;;;;;5072272;28;20204;-69
2022/08/20 12:04:02;;;;;;;0.40;0.40;;;22.90;99.90;;;;;;5073137;28;20254;-65
2022/08/20 12:06:50;;;;;;;1.23;1.23;;;22.90;99.90;;;;;;5073415;28;20227;-65
2022/08/20 12:09:40;;;;;;;0.40;0.40;;;23.00;99.90;;;;;;5072609;28;20204;-66
2022/08/20 12:12:39;;;;;;;0.60;0.60;;;22.90;99.90;;;;;;5071830;28;20287;-64
2022/08/20 12:15:27;;;;;;;0.65;0.65;;;22.90;99.90;;;;;;5073279;28;20201;-65
2022/08/20 12:18:16;;;;;;;0.40;0.40;;;22.80;99.90;;;;;;5072858;28;20294;-66
2022/08/20 12:21:04;;;;;;;2.15;1.88;;;22.60;99.90;;;;;;5072378;28;20193;-66
2022/08/20 12:23:52;;;;;;;0.40;0.40;;;22.50;99.90;;;;;;5072366;28;20209;-65
2022/08/20 12:26:40;;;;;;;7.38;1.20;;;22.50;99.90;;;;;;5073046;28;20736;-66
2022/08/20 12:29:33;;;;;;;0.40;0.40;;;22.50;99.90;;;;;;5074110;28;20204;-65
2022/08/20 12:32:27;;;;;;;0.40;0.40;;;22.40;99.90;;;;;;5074456;28;20205;-66
2022/08/20 12:35:17;;;;;;;0.40;0.40;;;22.40;99.90;;;;;;5073488;28;20699;-65
2022/08/20 12:38:06;;;;;;;0.40;0.40;;;22.40;99.90;;;;;;5073294;28;20274;-66
2022/08/20 12:40:54;;;;;;;0.40;0.40;;;22.40;99.90;;;;;;5072195;28;20205;-65
2022/08/20 12:43:42;;;;;;;0.63;0.50;;;22.50;99.90;;;;;;5073553;28;20204;-66
2022/08/20 12:46:32;;;;;;;0.50;0.50;;;22.60;99.90;;;;;;5072538;28;20424;-66
2022/08/20 12:49:20;;;;;;;0.50;0.50;;;22.70;99.90;;;;;;5072847;28;20208;-65
2022/08/20 12:52:09;;;;;;;0.57;0.57;;;22.80;99.90;;;;;;5072026;28;20572;-65
2022/08/20 12:54:58;;;;;;;2.17;0.95;;;22.80;99.90;;;;;;5073089;28;20196;-66
2022/08/20 12:57:48;;;;;;;0.40;0.40;;;22.60;99.90;;;;;;5060223;28;20224;-64
2022/08/20 13:00:40;;;;;;;0.73;0.73;;;22.60;99.90;;;;;;5052392;28;20205;-64
2022/08/20 13:03:31;;;;;;;0.40;0.40;;;22.50;99.90;;;;;;5052315;28;20193;-65
2022/08/20 13:06:27;;;;;;;0.40;0.40;;;22.40;99.90;;;;;;5052395;28;20308;-65
2022/08/20 13:09:17;;;;;;;0.40;0.40;;;22.20;99.90;;;;;;5052285;28;20263;-66
2022/08/20 13:12:05;;;;;;;0.40;0.40;;;22.20;99.90;;;;;;5052635;28;20217;-65
2022/08/20 13:14:53;;;;;;;0.40;0.40;;;22.20;99.90;;;;;;5053178;28;20198;-65
2022/08/20 13:17:42;;;;;;;1.20;1.10;;;22.10;99.90;;;;;;5067861;28;20593;-66
2022/08/20 13:20:32;;;;;;;0.75;0.68;;;22.00;99.90;;;;;;5072073;28;20685;-66
2022/08/20 13:23:21;;;;;;;0.40;0.40;;;21.90;99.90;;;;;;5071667;28;20209;-66
2022/08/20 13:26:09;;;;;;;0.40;0.40;;;21.80;99.90;;;;;;5072223;28;20221;-66
2022/08/20 13:28:57;;;;;;;0.40;0.40;;;21.70;99.90;;;;;;5072242;28;20192;-65
2022/08/20 13:31:47;;;;;;;0.40;0.40;;;21.80;99.90;;;;;;5071721;28;20247;-65
2022/08/20 13:34:35;;;;;;;0.88;0.88;;;21.80;99.90;;;;;;5071900;28;20234;-66
2022/08/20 13:37:27;;;;;;;0.40;0.40;;;22.00;99.90;;;;;;5072205;28;20227;-65
2022/08/20 13:40:15;;;;;;;0.40;0.40;;;22.10;99.90;;;;;;5072308;28;20197;-65
2022/08/20 13:43:04;;;;;;;0.40;0.40;;;22.30;99.90;;;;;;5071462;28;20791;-65
2022/08/20 13:45:58;;;;;;;0.40;0.40;;;22.50;99.90;;;;;;5071668;28;20205;-67
2022/08/20 13:48:46;;;;;;;0.40;0.40;;;22.70;99.90;;;;;;5071983;28;20589;-66
2022/08/20 13:51:34;;;;;;;0.40;0.40;;;22.80;99.90;;;;;;5072136;28;20738;-66
2022/08/20 13:54:24;;;;;;;0.65;0.65;;;23.10;99.90;;;;;;5071080;28;20196;-67
2022/08/20 13:57:19;;;;;;;0.40;0.40;;;23.40;99.90;;;;;;5078906;28;20585;-64
2022/08/20 14:00:11;;;;;;;0.40;0.40;;;23.60;99.90;;;;;;5091512;28;20203;-64
2022/08/20 14:02:59;;;;;;;0.40;0.40;;;24.00;99.90;;;;;;5091739;28;20434;-65
2022/08/20 14:05:47;;;;;;;0.40;0.40;;;24.20;99.90;;;;;;5092165;28;20200;-65
2022/08/20 14:08:36;;;;;;;0.40;0.40;;;24.40;99.90;;;;;;5091966;28;20197;-66
2022/08/20 14:11:25;;;;;;;0.40;0.40;;;24.60;99.90;;;;;;5091642;28;20224;-66
2022/08/20 14:14:14;;;;;;;0.40;0.40;;;24.80;99.90;;;;;;5091016;28;20200;-65
2022/08/20 14:17:14;;;;;;;0.40;0.40;;;24.90;99.90;;;;;;5092137;28;20251;-69
2022/08/20 14:20:06;;;;;;;0.40;0.40;;;24.90;99.90;;;;;;5091554;28;20584;-65
2022/08/20 14:22:55;;;;;;;0.40;0.40;;;24.90;99.90;;;;;;5091683;28;20757;-67
2022/08/20 14:25:46;;;;;;;0.40;0.40;;;24.60;99.90;;;;;;5091496;28;20199;-67
2022/08/20 14:28:35;;;;;;;0.40;0.40;;;24.60;99.90;;;;;;5091172;28;20281;-66
2022/08/20 14:31:23;;;;;;;0.40;0.40;;;24.40;99.90;;;;;;5091134;28;20224;-65
2022/08/20 14:34:11;;;;;;;0.40;0.40;;;24.30;99.90;;;;;;5091784;28;20207;-65
2022/08/20 14:37:10;;;;;;;0.40;0.40;;;24.30;99.90;;;;;;5091233;28;20224;-65
2022/08/20 14:40:00;;;;;;;0.40;0.40;;;24.30;99.90;;;;;;5090899;28;20208;-65
2022/08/20 14:42:48;;;;;;;0.40;0.40;;;24.40;99.90;;;;;;5091335;28;20223;-65
2022/08/20 14:45:40;;;;;;;0.40;0.40;;;24.20;99.90;;;;;;5095588;28;20199;-65
2022/08/20 14:48:28;;;;;;;0.40;0.40;;;24.00;99.90;;;;;;5095194;28;20198;-67
2022/08/20 14:51:16;;;;;;;0.40;0.40;;;24.00;99.90;;;;;;5095434;28;20688;-68
2022/08/20 14:54:04;;;;;;;0.40;0.40;;;23.80;99.90;;;;;;5095524;28;20609;-67